sensor_id;sensor_type;location;lat;lon;timestamp;temperature;humidity
20568;DHT22;10442;49.932;11.592;2023-08-30T00:01:35;16.40;74.40
20568;DHT22;10442;49.932;11.592;2023-08-30T00:04:03;16.40;74.60
20568;DHT22;10442;49.932;11.592;2023-08-30T00:06:30;16.40;74.60
20568;DHT22;10442;49.932;11.592;2023-08-30T00:08:59;16.30;74.60
20568;DHT22;10442;49.932;11.592;2023-08-30T00:11:26;16.30;74.60
20568;DHT22;10442;49.932;11.592;2023-08-30T00:14:02;16.30;74.70
20568;DHT22;10442;49.932;11.592;2023-08-30T00:16:30;16.20;75.10
20568;DHT22;10442;49.932;11.592;2023-08-30T00:18:57;16.20;75.00
20568;DHT22;10442;49.932;11.592;2023-08-30T00:21:24;16.20;75.10
20568;DHT22;10442;49.932;11.592;2023-08-30T00:23:53;16.10;75.50
20568;DHT22;10442;49.932;11.592;2023-08-30T00:26:20;16.10;75.00
20568;DHT22;10442;49.932;11.592;2023-08-30T00:28:47;16.10;75.30
20568;DHT22;10442;49.932;11.592;2023-08-30T00:31:14;16.00;75.80
20568;DHT22;10442;49.932;11.592;2023-08-30T00:33:42;16.00;75.80
20568;DHT22;10442;49.932;11.592;2023-08-30T00:36:12;16.00;75.80
20568;DHT22;10442;49.932;11.592;2023-08-30T00:38:39;16.00;75.80
20568;DHT22;10442;49.932;11.592;2023-08-30T00:41:06;16.00;75.90
20568;DHT22;10442;49.932;11.592;2023-08-30T00:43:34;16.00;75.80
20568;DHT22;10442;49.932;11.592;2023-08-30T00:46:01;15.90;75.70
20568;DHT22;10442;49.932;11.592;2023-08-30T00:48:29;15.90;75.80
20568;DHT22;10442;49.932;11.592;2023-08-30T00:50:57;15.90;75.80
20568;DHT22;10442;49.932;11.592;2023-08-30T00:53:24;15.90;75.90
20568;DHT22;10442;49.932;11.592;2023-08-30T00:55:52;15.90;76.00
20568;DHT22;10442;49.932;11.592;2023-08-30T00:58:20;15.90;76.00
20568;DHT22;10442;49.932;11.592;2023-08-30T01:00:47;15.80;76.40
20568;DHT22;10442;49.932;11.592;2023-08-30T01:03:15;15.80;76.50
20568;DHT22;10442;49.932;11.592;2023-08-30T01:05:44;15.80;76.50
20568;DHT22;10442;49.932;11.592;2023-08-30T01:08:12;15.80;76.40
20568;DHT22;10442;49.932;11.592;2023-08-30T01:13:26;15.80;76.40
20568;DHT22;10442;49.932;11.592;2023-08-30T01:15:58;15.80;76.20
20568;DHT22;10442;49.932;11.592;2023-08-30T01:18:32;15.80;76.40
20568;DHT22;10442;49.932;11.592;2023-08-30T01:21:01;15.80;77.00
20568;DHT22;10442;49.932;11.592;2023-08-30T01:23:42;15.80;77.10
20568;DHT22;10442;49.932;11.592;2023-08-30T01:26:20;15.80;77.10
20568;DHT22;10442;49.932;11.592;2023-08-30T01:28:52;15.70;76.80
20568;DHT22;10442;49.932;11.592;2023-08-30T01:31:21;15.80;76.80
20568;DHT22;10442;49.932;11.592;2023-08-30T01:33:49;15.70;76.70
20568;DHT22;10442;49.932;11.592;2023-08-30T01:36:18;15.70;76.80
20568;DHT22;10442;49.932;11.592;2023-08-30T01:38:46;15.70;76.80
20568;DHT22;10442;49.932;11.592;2023-08-30T01:41:14;15.70;76.80
20568;DHT22;10442;49.932;11.592;2023-08-30T01:43:42;15.70;76.80
20568;DHT22;10442;49.932;11.592;2023-08-30T01:46:10;15.70;76.80
20568;DHT22;10442;49.932;11.592;2023-08-30T01:48:39;15.70;77.00
20568;DHT22;10442;49.932;11.592;2023-08-30T01:51:09;15.60;77.00
20568;DHT22;10442;49.932;11.592;2023-08-30T01:53:37;15.60;76.90
20568;DHT22;10442;49.932;11.592;2023-08-30T01:56:05;15.60;76.90
20568;DHT22;10442;49.932;11.592;2023-08-30T01:58:34;15.60;76.90
20568;DHT22;10442;49.932;11.592;2023-08-30T02:01:02;15.60;76.90
20568;DHT22;10442;49.932;11.592;2023-08-30T02:03:30;15.60;76.90
20568;DHT22;10442;49.932;11.592;2023-08-30T02:06:14;15.50;76.70
20568;DHT22;10442;49.932;11.592;2023-08-30T02:08:54;15.50;76.90
20568;DHT22;10442;49.932;11.592;2023-08-30T02:11:26;15.50;76.80
20568;DHT22;10442;49.932;11.592;2023-08-30T02:13:57;15.50;76.60
20568;DHT22;10442;49.932;11.592;2023-08-30T02:16:28;15.50;76.70
20568;DHT22;10442;49.932;11.592;2023-08-30T02:18:57;15.40;76.60
20568;DHT22;10442;49.932;11.592;2023-08-30T02:21:24;15.40;76.60
20568;DHT22;10442;49.932;11.592;2023-08-30T02:23:52;15.40;76.70
20568;DHT22;10442;49.932;11.592;2023-08-30T02:26:20;15.40;76.90
20568;DHT22;10442;49.932;11.592;2023-08-30T02:28:47;15.40;76.90
20568;DHT22;10442;49.932;11.592;2023-08-30T02:31:15;15.40;76.90
20568;DHT22;10442;49.932;11.592;2023-08-30T02:33:44;15.40;77.00
20568;DHT22;10442;49.932;11.592;2023-08-30T02:36:11;15.40;77.20
20568;DHT22;10442;49.932;11.592;2023-08-30T02:38:39;15.40;77.20
20568;DHT22;10442;49.932;11.592;2023-08-30T02:41:06;15.40;77.20
20568;DHT22;10442;49.932;11.592;2023-08-30T02:43:34;15.40;77.20
20568;DHT22;10442;49.932;11.592;2023-08-30T02:46:01;15.40;77.30
20568;DHT22;10442;49.932;11.592;2023-08-30T02:48:34;15.40;77.30
20568;DHT22;10442;49.932;11.592;2023-08-30T02:51:02;15.40;77.30
20568;DHT22;10442;49.932;11.592;2023-08-30T02:53:29;15.40;77.30
20568;DHT22;10442;49.932;11.592;2023-08-30T02:55:57;15.40;77.50
20568;DHT22;10442;49.932;11.592;2023-08-30T02:58:24;15.40;77.80
20568;DHT22;10442;49.932;11.592;2023-08-30T03:00:57;15.40;77.90
20568;DHT22;10442;49.932;11.592;2023-08-30T03:03:25;15.40;77.90
20568;DHT22;10442;49.932;11.592;2023-08-30T03:05:53;15.40;77.90
20568;DHT22;10442;49.932;11.592;2023-08-30T03:08:21;15.30;77.70
20568;DHT22;10442;49.932;11.592;2023-08-30T03:10:48;15.30;77.60
20568;DHT22;10442;49.932;11.592;2023-08-30T03:13:15;15.40;77.70
20568;DHT22;10442;49.932;11.592;2023-08-30T03:15:43;15.40;77.60
20568;DHT22;10442;49.932;11.592;2023-08-30T03:18:11;15.40;77.60
20568;DHT22;10442;49.932;11.592;2023-08-30T03:20:38;15.30;77.50
20568;DHT22;10442;49.932;11.592;2023-08-30T03:23:07;15.40;77.60
20568;DHT22;10442;49.932;11.592;2023-08-30T03:25:34;15.40;77.50
20568;DHT22;10442;49.932;11.592;2023-08-30T03:28:01;15.40;77.50
20568;DHT22;10442;49.932;11.592;2023-08-30T03:30:30;15.40;77.40
20568;DHT22;10442;49.932;11.592;2023-08-30T03:32:58;15.40;77.40
20568;DHT22;10442;49.932;11.592;2023-08-30T03:35:25;15.40;77.50
20568;DHT22;10442;49.932;11.592;2023-08-30T03:37:52;15.40;77.50
20568;DHT22;10442;49.932;11.592;2023-08-30T03:40:19;15.50;77.60
20568;DHT22;10442;49.932;11.592;2023-08-30T03:42:47;15.50;77.70
20568;DHT22;10442;49.932;11.592;2023-08-30T03:45:14;15.50;77.80
20568;DHT22;10442;49.932;11.592;2023-08-30T03:47:42;15.50;77.80
20568;DHT22;10442;49.932;11.592;2023-08-30T03:50:10;15.50;77.80
20568;DHT22;10442;49.932;11.592;2023-08-30T03:52:38;15.50;77.90
20568;DHT22;10442;49.932;11.592;2023-08-30T03:55:06;15.60;78.00
20568;DHT22;10442;49.932;11.592;2023-08-30T03:57:35;15.60;77.80
20568;DHT22;10442;49.932;11.592;2023-08-30T04:00:03;15.60;77.70
20568;DHT22;10442;49.932;11.592;2023-08-30T04:02:40;15.60;77.60
20568;DHT22;10442;49.932;11.592;2023-08-30T04:05:08;15.50;77.40
20568;DHT22;10442;49.932;11.592;2023-08-30T04:07:38;15.60;77.40
20568;DHT22;10442;49.932;11.592;2023-08-30T04:10:05;15.60;77.40
20568;DHT22;10442;49.932;11.592;2023-08-30T04:12:35;15.50;77.20
20568;DHT22;10442;49.932;11.592;2023-08-30T04:15:02;15.50;77.20
20568;DHT22;10442;49.932;11.592;2023-08-30T04:17:30;15.50;77.20
20568;DHT22;10442;49.932;11.592;2023-08-30T04:19:57;15.50;77.10
20568;DHT22;10442;49.932;11.592;2023-08-30T04:22:24;15.50;77.20
20568;DHT22;10442;49.932;11.592;2023-08-30T04:24:52;15.50;77.20
20568;DHT22;10442;49.932;11.592;2023-08-30T04:27:19;15.40;77.10
20568;DHT22;10442;49.932;11.592;2023-08-30T04:29:47;15.40;77.00
20568;DHT22;10442;49.932;11.592;2023-08-30T04:32:15;15.40;77.00
20568;DHT22;10442;49.932;11.592;2023-08-30T04:34:42;15.40;77.10
20568;DHT22;10442;49.932;11.592;2023-08-30T04:37:09;15.30;77.40
20568;DHT22;10442;49.932;11.592;2023-08-30T04:39:36;15.30;77.30
20568;DHT22;10442;49.932;11.592;2023-08-30T04:42:04;15.30;77.30
20568;DHT22;10442;49.932;11.592;2023-08-30T04:44:32;15.30;77.40
20568;DHT22;10442;49.932;11.592;2023-08-30T04:46:59;15.30;77.50
20568;DHT22;10442;49.932;11.592;2023-08-30T04:49:27;15.30;77.60
20568;DHT22;10442;49.932;11.592;2023-08-30T04:51:56;15.30;77.60
20568;DHT22;10442;49.932;11.592;2023-08-30T04:54:24;15.30;77.80
20568;DHT22;10442;49.932;11.592;2023-08-30T04:56:51;15.30;77.80
20568;DHT22;10442;49.932;11.592;2023-08-30T04:59:19;15.30;78.00
20568;DHT22;10442;49.932;11.592;2023-08-30T05:01:47;15.30;77.90
20568;DHT22;10442;49.932;11.592;2023-08-30T05:04:17;15.40;78.00
20568;DHT22;10442;49.932;11.592;2023-08-30T05:06:44;15.40;78.00
20568;DHT22;10442;49.932;11.592;2023-08-30T05:09:12;15.40;78.00
20568;DHT22;10442;49.932;11.592;2023-08-30T05:11:39;15.40;78.00
20568;DHT22;10442;49.932;11.592;2023-08-30T05:14:07;15.40;78.00
20568;DHT22;10442;49.932;11.592;2023-08-30T05:16:40;15.50;78.00
20568;DHT22;10442;49.932;11.592;2023-08-30T05:19:09;15.50;78.00
20568;DHT22;10442;49.932;11.592;2023-08-30T05:21:37;15.50;78.00
20568;DHT22;10442;49.932;11.592;2023-08-30T05:24:04;15.50;78.10
20568;DHT22;10442;49.932;11.592;2023-08-30T05:26:34;15.60;78.00
20568;DHT22;10442;49.932;11.592;2023-08-30T05:29:02;15.70;78.10
20568;DHT22;10442;49.932;11.592;2023-08-30T05:31:30;15.70;78.20
20568;DHT22;10442;49.932;11.592;2023-08-30T05:34:03;15.80;78.30
20568;DHT22;10442;49.932;11.592;2023-08-30T05:36:50;15.80;78.10
20568;DHT22;10442;49.932;11.592;2023-08-30T05:39:25;15.90;77.90
20568;DHT22;10442;49.932;11.592;2023-08-30T05:41:56;15.90;77.70
20568;DHT22;10442;49.932;11.592;2023-08-30T05:44:23;16.00;77.80
20568;DHT22;10442;49.932;11.592;2023-08-30T05:46:51;16.00;77.80
20568;DHT22;10442;49.932;11.592;2023-08-30T05:49:18;16.00;77.80
20568;DHT22;10442;49.932;11.592;2023-08-30T05:51:46;16.10;77.80
20568;DHT22;10442;49.932;11.592;2023-08-30T05:54:14;16.20;77.90
20568;DHT22;10442;49.932;11.592;2023-08-30T05:56:42;16.20;77.70
20568;DHT22;10442;49.932;11.592;2023-08-30T05:59:09;16.20;77.80
20568;DHT22;10442;49.932;11.592;2023-08-30T06:01:37;16.30;77.80
20568;DHT22;10442;49.932;11.592;2023-08-30T06:04:05;16.40;77.70
20568;DHT22;10442;49.932;11.592;2023-08-30T06:06:32;16.50;77.60
20568;DHT22;10442;49.932;11.592;2023-08-30T06:09:00;16.60;77.50
20568;DHT22;10442;49.932;11.592;2023-08-30T06:11:27;16.70;77.60
20568;DHT22;10442;49.932;11.592;2023-08-30T06:13:55;16.80;77.60
20568;DHT22;10442;49.932;11.592;2023-08-30T06:16:22;17.00;77.50
20568;DHT22;10442;49.932;11.592;2023-08-30T06:18:50;17.20;78.00
20568;DHT22;10442;49.932;11.592;2023-08-30T06:21:17;17.40;77.00
20568;DHT22;10442;49.932;11.592;2023-08-30T06:23:45;17.60;76.10
20568;DHT22;10442;49.932;11.592;2023-08-30T06:26:12;17.80;76.00
20568;DHT22;10442;49.932;11.592;2023-08-30T06:28:40;18.00;76.90
20568;DHT22;10442;49.932;11.592;2023-08-30T06:31:09;18.30;76.10
20568;DHT22;10442;49.932;11.592;2023-08-30T06:33:36;18.60;74.70
20568;DHT22;10442;49.932;11.592;2023-08-30T06:36:06;19.00;73.40
20568;DHT22;10442;49.932;11.592;2023-08-30T06:38:34;19.20;72.90
20568;DHT22;10442;49.932;11.592;2023-08-30T06:41:01;19.50;72.00
20568;DHT22;10442;49.932;11.592;2023-08-30T06:43:29;19.70;71.70
20568;DHT22;10442;49.932;11.592;2023-08-30T06:45:58;20.00;71.40
20568;DHT22;10442;49.932;11.592;2023-08-30T06:48:26;20.40;70.80
20568;DHT22;10442;49.932;11.592;2023-08-30T06:50:57;20.80;70.20
20568;DHT22;10442;49.932;11.592;2023-08-30T06:53:26;21.10;68.60
20568;DHT22;10442;49.932;11.592;2023-08-30T06:56:00;21.40;68.00
20568;DHT22;10442;49.932;11.592;2023-08-30T06:58:28;21.70;66.60
20568;DHT22;10442;49.932;11.592;2023-08-30T07:00:57;21.90;66.10
20568;DHT22;10442;49.932;11.592;2023-08-30T07:03:26;22.00;65.00
20568;DHT22;10442;49.932;11.592;2023-08-30T07:05:53;22.10;64.10
20568;DHT22;10442;49.932;11.592;2023-08-30T07:08:21;22.10;63.00
20568;DHT22;10442;49.932;11.592;2023-08-30T07:10:48;22.00;63.20
20568;DHT22;10442;49.932;11.592;2023-08-30T07:13:16;22.00;63.90
20568;DHT22;10442;49.932;11.592;2023-08-30T07:15:43;22.10;64.20
20568;DHT22;10442;49.932;11.592;2023-08-30T07:18:11;22.20;64.40
20568;DHT22;10442;49.932;11.592;2023-08-30T07:20:39;22.40;63.90
20568;DHT22;10442;49.932;11.592;2023-08-30T07:23:07;22.60;63.90
20568;DHT22;10442;49.932;11.592;2023-08-30T07:25:38;22.90;63.60
20568;DHT22;10442;49.932;11.592;2023-08-30T07:28:06;23.20;63.10
20568;DHT22;10442;49.932;11.592;2023-08-30T07:30:34;23.50;62.60
20568;DHT22;10442;49.932;11.592;2023-08-30T07:33:05;23.90;62.50
20568;DHT22;10442;49.932;11.592;2023-08-30T07:35:32;24.20;61.40
20568;DHT22;10442;49.932;11.592;2023-08-30T07:38:00;24.60;60.90
20568;DHT22;10442;49.932;11.592;2023-08-30T07:40:27;25.00;59.80
20568;DHT22;10442;49.932;11.592;2023-08-30T07:42:56;25.30;59.50
20568;DHT22;10442;49.932;11.592;2023-08-30T07:45:26;25.80;59.10
20568;DHT22;10442;49.932;11.592;2023-08-30T07:47:54;26.30;58.40
20568;DHT22;10442;49.932;11.592;2023-08-30T07:50:22;26.90;57.60
20568;DHT22;10442;49.932;11.592;2023-08-30T07:52:49;27.50;56.40
20568;DHT22;10442;49.932;11.592;2023-08-30T07:55:17;28.00;54.90
20568;DHT22;10442;49.932;11.592;2023-08-30T07:57:44;28.60;53.90
20568;DHT22;10442;49.932;11.592;2023-08-30T08:00:12;29.20;53.40
20568;DHT22;10442;49.932;11.592;2023-08-30T08:02:44;29.70;51.90
20568;DHT22;10442;49.932;11.592;2023-08-30T08:05:12;30.10;50.00
20568;DHT22;10442;49.932;11.592;2023-08-30T08:07:42;30.30;49.20
20568;DHT22;10442;49.932;11.592;2023-08-30T08:10:10;30.30;48.50
20568;DHT22;10442;49.932;11.592;2023-08-30T08:12:38;30.20;48.70
20568;DHT22;10442;49.932;11.592;2023-08-30T08:15:06;30.10;47.80
20568;DHT22;10442;49.932;11.592;2023-08-30T08:17:34;30.00;48.50
20568;DHT22;10442;49.932;11.592;2023-08-30T08:20:02;30.10;49.30
20568;DHT22;10442;49.932;11.592;2023-08-30T08:22:30;30.20;48.20
20568;DHT22;10442;49.932;11.592;2023-08-30T08:24:57;30.50;48.20
20568;DHT22;10442;49.932;11.592;2023-08-30T08:27:25;30.70;48.00
20568;DHT22;10442;49.932;11.592;2023-08-30T08:29:52;30.90;46.90
20568;DHT22;10442;49.932;11.592;2023-08-30T08:32:20;31.00;46.50
20568;DHT22;10442;49.932;11.592;2023-08-30T08:34:47;31.10;46.00
20568;DHT22;10442;49.932;11.592;2023-08-30T08:37:15;31.20;46.40
20568;DHT22;10442;49.932;11.592;2023-08-30T08:39:42;31.40;45.80
20568;DHT22;10442;49.932;11.592;2023-08-30T08:42:13;31.50;45.40
20568;DHT22;10442;49.932;11.592;2023-08-30T08:44:43;31.70;45.20
20568;DHT22;10442;49.932;11.592;2023-08-30T08:47:13;31.90;44.60
20568;DHT22;10442;49.932;11.592;2023-08-30T08:49:42;32.00;43.60
20568;DHT22;10442;49.932;11.592;2023-08-30T08:52:10;32.00;43.40
20568;DHT22;10442;49.932;11.592;2023-08-30T08:54:58;32.10;43.60
20568;DHT22;10442;49.932;11.592;2023-08-30T08:57:28;32.00;42.70
20568;DHT22;10442;49.932;11.592;2023-08-30T08:59:59;31.80;42.20
20568;DHT22;10442;49.932;11.592;2023-08-30T09:02:26;31.40;42.30
20568;DHT22;10442;49.932;11.592;2023-08-30T09:04:56;31.10;42.60
20568;DHT22;10442;49.932;11.592;2023-08-30T09:07:27;30.70;43.00
20568;DHT22;10442;49.932;11.592;2023-08-30T09:09:55;30.30;43.50
20568;DHT22;10442;49.932;11.592;2023-08-30T09:12:23;30.10;44.10
20568;DHT22;10442;49.932;11.592;2023-08-30T09:14:55;29.90;44.80
20568;DHT22;10442;49.932;11.592;2023-08-30T09:17:34;29.70;43.90
20568;DHT22;10442;49.932;11.592;2023-08-30T09:20:11;29.60;45.00
20568;DHT22;10442;49.932;11.592;2023-08-30T09:22:41;29.50;45.40
20568;DHT22;10442;49.932;11.592;2023-08-30T09:25:11;29.60;45.20
20568;DHT22;10442;49.932;11.592;2023-08-30T09:27:38;29.60;44.80
20568;DHT22;10442;49.932;11.592;2023-08-30T09:30:09;29.80;45.20
20568;DHT22;10442;49.932;11.592;2023-08-30T09:32:39;29.90;44.30
20568;DHT22;10442;49.932;11.592;2023-08-30T09:35:08;30.00;44.30
20568;DHT22;10442;49.932;11.592;2023-08-30T09:37:36;30.10;44.30
20568;DHT22;10442;49.932;11.592;2023-08-30T09:40:05;30.20;44.20
20568;DHT22;10442;49.932;11.592;2023-08-30T09:42:33;30.30;44.10
20568;DHT22;10442;49.932;11.592;2023-08-30T09:45:01;30.40;43.70
20568;DHT22;10442;49.932;11.592;2023-08-30T09:47:29;30.40;43.90
20568;DHT22;10442;49.932;11.592;2023-08-30T09:49:58;30.50;43.50
20568;DHT22;10442;49.932;11.592;2023-08-30T09:52:28;30.50;43.10
20568;DHT22;10442;49.932;11.592;2023-08-30T09:54:56;30.50;43.10
20568;DHT22;10442;49.932;11.592;2023-08-30T09:57:24;30.40;42.70
20568;DHT22;10442;49.932;11.592;2023-08-30T09:59:53;30.30;42.40
20568;DHT22;10442;49.932;11.592;2023-08-30T10:02:21;30.10;42.40
20568;DHT22;10442;49.932;11.592;2023-08-30T10:04:50;29.80;42.10
20568;DHT22;10442;49.932;11.592;2023-08-30T10:07:18;29.40;42.10
20568;DHT22;10442;49.932;11.592;2023-08-30T10:09:48;29.10;42.90
20568;DHT22;10442;49.932;11.592;2023-08-30T10:12:37;28.60;43.60
20568;DHT22;10442;49.932;11.592;2023-08-30T10:15:06;28.20;43.60
20568;DHT22;10442;49.932;11.592;2023-08-30T10:17:37;27.80;43.70
20568;DHT22;10442;49.932;11.592;2023-08-30T10:20:06;27.40;44.30
20568;DHT22;10442;49.932;11.592;2023-08-30T10:22:36;27.10;45.40
20568;DHT22;10442;49.932;11.592;2023-08-30T10:25:11;26.90;46.30
20568;DHT22;10442;49.932;11.592;2023-08-30T10:27:42;26.70;46.90
20568;DHT22;10442;49.932;11.592;2023-08-30T10:30:11;26.60;46.40
20568;DHT22;10442;49.932;11.592;2023-08-30T10:32:44;26.50;46.00
20568;DHT22;10442;49.932;11.592;2023-08-30T10:35:14;26.40;47.30
20568;DHT22;10442;49.932;11.592;2023-08-30T10:37:42;26.20;47.50
20568;DHT22;10442;49.932;11.592;2023-08-30T10:40:20;26.20;47.90
20568;DHT22;10442;49.932;11.592;2023-08-30T10:42:59;26.10;47.70
20568;DHT22;10442;49.932;11.592;2023-08-30T10:45:27;26.10;46.90
20568;DHT22;10442;49.932;11.592;2023-08-30T10:47:55;26.00;47.60
20568;DHT22;10442;49.932;11.592;2023-08-30T10:50:29;26.00;47.30
20568;DHT22;10442;49.932;11.592;2023-08-30T10:52:58;25.90;48.00
20568;DHT22;10442;49.932;11.592;2023-08-30T10:55:26;25.90;48.40
20568;DHT22;10442;49.932;11.592;2023-08-30T10:58:02;25.80;47.80
20568;DHT22;10442;49.932;11.592;2023-08-30T11:00:30;25.90;48.70
20568;DHT22;10442;49.932;11.592;2023-08-30T11:02:58;25.90;48.20
20568;DHT22;10442;49.932;11.592;2023-08-30T11:05:26;26.00;47.90
20568;DHT22;10442;49.932;11.592;2023-08-30T11:07:55;26.10;47.80
20568;DHT22;10442;49.932;11.592;2023-08-30T11:10:23;26.10;47.10
20568;DHT22;10442;49.932;11.592;2023-08-30T11:12:50;26.20;47.70
20568;DHT22;10442;49.932;11.592;2023-08-30T11:15:19;26.20;47.60
20568;DHT22;10442;49.932;11.592;2023-08-30T11:17:48;26.20;47.50
20568;DHT22;10442;49.932;11.592;2023-08-30T11:20:16;26.20;47.70
20568;DHT22;10442;49.932;11.592;2023-08-30T11:22:49;26.30;47.40
20568;DHT22;10442;49.932;11.592;2023-08-30T11:25:17;26.20;47.00
20568;DHT22;10442;49.932;11.592;2023-08-30T11:27:45;26.30;46.70
20568;DHT22;10442;49.932;11.592;2023-08-30T11:30:13;26.30;46.40
20568;DHT22;10442;49.932;11.592;2023-08-30T11:32:42;26.20;46.10
20568;DHT22;10442;49.932;11.592;2023-08-30T11:35:12;26.20;46.20
20568;DHT22;10442;49.932;11.592;2023-08-30T11:37:41;26.10;46.90
20568;DHT22;10442;49.932;11.592;2023-08-30T11:40:11;26.10;47.10
20568;DHT22;10442;49.932;11.592;2023-08-30T11:42:41;26.20;47.30
20568;DHT22;10442;49.932;11.592;2023-08-30T11:45:10;26.20;46.80
20568;DHT22;10442;49.932;11.592;2023-08-30T11:47:38;26.20;47.60
20568;DHT22;10442;49.932;11.592;2023-08-30T11:50:08;26.30;47.20
20568;DHT22;10442;49.932;11.592;2023-08-30T11:52:38;26.40;47.30
20568;DHT22;10442;49.932;11.592;2023-08-30T11:55:07;26.50;46.80
20568;DHT22;10442;49.932;11.592;2023-08-30T11:57:36;26.50;46.60
20568;DHT22;10442;49.932;11.592;2023-08-30T12:00:10;26.50;46.30
20568;DHT22;10442;49.932;11.592;2023-08-30T12:02:41;26.60;46.90
20568;DHT22;10442;49.932;11.592;2023-08-30T12:05:11;26.60;46.50
20568;DHT22;10442;49.932;11.592;2023-08-30T12:07:40;26.70;46.30
20568;DHT22;10442;49.932;11.592;2023-08-30T12:10:11;26.70;45.40
20568;DHT22;10442;49.932;11.592;2023-08-30T12:12:45;26.80;45.30
20568;DHT22;10442;49.932;11.592;2023-08-30T12:15:13;26.70;44.70
20568;DHT22;10442;49.932;11.592;2023-08-30T12:17:42;26.70;44.30
20568;DHT22;10442;49.932;11.592;2023-08-30T12:20:17;26.60;44.90
20568;DHT22;10442;49.932;11.592;2023-08-30T12:22:48;26.50;45.50
20568;DHT22;10442;49.932;11.592;2023-08-30T12:25:21;26.50;45.70
20568;DHT22;10442;49.932;11.592;2023-08-30T12:27:51;26.40;45.70
20568;DHT22;10442;49.932;11.592;2023-08-30T12:30:20;26.30;46.60
20568;DHT22;10442;49.932;11.592;2023-08-30T12:32:48;26.30;46.60
20568;DHT22;10442;49.932;11.592;2023-08-30T12:35:16;26.20;46.60
20568;DHT22;10442;49.932;11.592;2023-08-30T12:37:43;26.10;46.20
20568;DHT22;10442;49.932;11.592;2023-08-30T12:40:11;26.00;46.80
20568;DHT22;10442;49.932;11.592;2023-08-30T12:42:39;26.00;47.30
20568;DHT22;10442;49.932;11.592;2023-08-30T12:45:07;25.90;46.90
20568;DHT22;10442;49.932;11.592;2023-08-30T12:47:35;25.80;47.10
20568;DHT22;10442;49.932;11.592;2023-08-30T12:50:04;25.70;47.10
20568;DHT22;10442;49.932;11.592;2023-08-30T12:52:31;25.70;46.90
20568;DHT22;10442;49.932;11.592;2023-08-30T12:54:59;25.60;46.70
20568;DHT22;10442;49.932;11.592;2023-08-30T12:57:26;25.40;47.70
20568;DHT22;10442;49.932;11.592;2023-08-30T12:59:54;25.40;47.70
20568;DHT22;10442;49.932;11.592;2023-08-30T13:02:21;25.30;47.50
20568;DHT22;10442;49.932;11.592;2023-08-30T13:04:49;25.30;47.80
20568;DHT22;10442;49.932;11.592;2023-08-30T13:07:16;25.30;48.10
20568;DHT22;10442;49.932;11.592;2023-08-30T13:09:44;25.20;48.10
20568;DHT22;10442;49.932;11.592;2023-08-30T13:12:12;25.20;47.90
20568;DHT22;10442;49.932;11.592;2023-08-30T13:14:39;25.20;48.00
20568;DHT22;10442;49.932;11.592;2023-08-30T13:17:07;25.20;47.70
20568;DHT22;10442;49.932;11.592;2023-08-30T13:19:34;25.20;47.90
20568;DHT22;10442;49.932;11.592;2023-08-30T13:22:02;25.10;48.00
20568;DHT22;10442;49.932;11.592;2023-08-30T13:24:29;25.10;47.90
20568;DHT22;10442;49.932;11.592;2023-08-30T13:26:59;25.10;48.00
20568;DHT22;10442;49.932;11.592;2023-08-30T13:29:27;25.10;48.60
20568;DHT22;10442;49.932;11.592;2023-08-30T13:31:54;24.90;48.10
20568;DHT22;10442;49.932;11.592;2023-08-30T13:34:22;24.90;48.30
20568;DHT22;10442;49.932;11.592;2023-08-30T13:36:49;24.80;49.20
20568;DHT22;10442;49.932;11.592;2023-08-30T13:39:17;24.80;48.80
20568;DHT22;10442;49.932;11.592;2023-08-30T13:41:47;24.70;49.10
20568;DHT22;10442;49.932;11.592;2023-08-30T13:44:15;24.60;49.50
20568;DHT22;10442;49.932;11.592;2023-08-30T13:46:43;24.40;49.90
20568;DHT22;10442;49.932;11.592;2023-08-30T13:49:11;24.30;50.40
20568;DHT22;10442;49.932;11.592;2023-08-30T13:51:38;24.20;50.60
20568;DHT22;10442;49.932;11.592;2023-08-30T13:54:06;24.20;50.70
20568;DHT22;10442;49.932;11.592;2023-08-30T13:56:35;24.20;51.00
20568;DHT22;10442;49.932;11.592;2023-08-30T13:59:03;24.20;51.00
20568;DHT22;10442;49.932;11.592;2023-08-30T14:01:31;24.20;51.20
20568;DHT22;10442;49.932;11.592;2023-08-30T14:03:58;24.20;51.00
20568;DHT22;10442;49.932;11.592;2023-08-30T14:06:26;24.20;50.90
20568;DHT22;10442;49.932;11.592;2023-08-30T14:08:53;24.20;51.00
20568;DHT22;10442;49.932;11.592;2023-08-30T14:11:21;24.10;50.90
20568;DHT22;10442;49.932;11.592;2023-08-30T14:13:48;24.10;51.10
20568;DHT22;10442;49.932;11.592;2023-08-30T14:16:16;24.10;50.90
20568;DHT22;10442;49.932;11.592;2023-08-30T14:18:44;24.10;50.50
20568;DHT22;10442;49.932;11.592;2023-08-30T14:21:11;24.10;50.40
20568;DHT22;10442;49.932;11.592;2023-08-30T14:23:41;24.10;50.10
20568;DHT22;10442;49.932;11.592;2023-08-30T14:26:08;24.20;49.70
20568;DHT22;10442;49.932;11.592;2023-08-30T14:28:37;24.20;49.40
20568;DHT22;10442;49.932;11.592;2023-08-30T14:31:07;24.20;50.00
20568;DHT22;10442;49.932;11.592;2023-08-30T14:33:36;24.20;50.00
20568;DHT22;10442;49.932;11.592;2023-08-30T14:36:08;24.20;50.00
20568;DHT22;10442;49.932;11.592;2023-08-30T14:38:38;24.20;50.60
20568;DHT22;10442;49.932;11.592;2023-08-30T14:41:06;24.20;50.50
20568;DHT22;10442;49.932;11.592;2023-08-30T14:43:34;24.20;50.50
20568;DHT22;10442;49.932;11.592;2023-08-30T14:46:03;24.20;50.40
20568;DHT22;10442;49.932;11.592;2023-08-30T14:48:39;24.10;50.30
20568;DHT22;10442;49.932;11.592;2023-08-30T14:51:07;24.10;50.70
20568;DHT22;10442;49.932;11.592;2023-08-30T14:53:35;24.10;50.90
20568;DHT22;10442;49.932;11.592;2023-08-30T14:56:04;24.00;51.20
20568;DHT22;10442;49.932;11.592;2023-08-30T14:58:35;24.00;51.30
20568;DHT22;10442;49.932;11.592;2023-08-30T15:01:04;24.00;51.10
20568;DHT22;10442;49.932;11.592;2023-08-30T15:03:33;24.00;51.10
20568;DHT22;10442;49.932;11.592;2023-08-30T15:06:01;24.00;51.50
20568;DHT22;10442;49.932;11.592;2023-08-30T15:08:29;23.90;51.70
20568;DHT22;10442;49.932;11.592;2023-08-30T15:10:57;23.90;51.70
20568;DHT22;10442;49.932;11.592;2023-08-30T15:13:25;23.90;51.90
20568;DHT22;10442;49.932;11.592;2023-08-30T15:15:53;23.90;52.00
20568;DHT22;10442;49.932;11.592;2023-08-30T15:18:20;23.80;52.20
20568;DHT22;10442;49.932;11.592;2023-08-30T15:20:50;23.90;52.30
20568;DHT22;10442;49.932;11.592;2023-08-30T15:23:19;23.80;52.30
20568;DHT22;10442;49.932;11.592;2023-08-30T15:25:47;23.70;53.00
20568;DHT22;10442;49.932;11.592;2023-08-30T15:28:15;23.70;53.10